Time;durP1;ratioP1;P1;durP2;ratioP2;P2;SDS_P1;SDS_P2;PMS_P1;PMS_P2;Temp;Humidity;BMP_temperature;BMP_pressure;BME280_temperature;BME280_humidity;BME280_pressure;Samples;Min_cycle;Max_cycle;Signal;HPM_P1;HPM_P2
2021/01/11 00:01:27;;;;;;;63.15;28.55;;;1.00;88.10;;;;;;5040105;28;20055;-71
2021/01/11 00:03:52;;;;;;;63.42;27.88;;;0.90;87.90;;;;;;5048301;28;20033;-67
2021/01/11 00:06:18;;;;;;;55.25;26.38;;;0.90;87.90;;;;;;5035095;28;20075;-67
2021/01/11 00:08:45;;;;;;;65.82;27.27;;;0.80;87.80;;;;;;5039896;28;20654;-68
2021/01/11 00:11:12;;;;;;;60.67;27.48;;;0.80;87.80;;;;;;5040617;28;20124;-67
2021/01/11 00:13:40;;;;;;;68.75;29.05;;;0.70;87.70;;;;;;5034059;28;20057;-69
2021/01/11 00:16:05;;;;;;;67.07;28.35;;;0.60;87.50;;;;;;5041936;28;20045;-73
2021/01/11 00:18:31;;;;;;;64.63;29.77;;;0.60;87.50;;;;;;5043116;28;20036;-69
2021/01/11 00:20:57;;;;;;;72.95;30.55;;;0.50;87.50;;;;;;5039182;28;20030;-69
2021/01/11 00:23:23;;;;;;;74.50;32.33;;;0.50;87.40;;;;;;5038060;28;20022;-69
2021/01/11 00:25:48;;;;;;;72.50;31.55;;;0.30;87.20;;;;;;5043414;28;20028;-69
2021/01/11 00:28:14;;;;;;;70.72;30.48;;;0.30;87.50;;;;;;5036626;28;20036;-71
2021/01/11 00:30:40;;;;;;;72.50;31.90;;;0.30;88.20;;;;;;5034230;28;20041;-69
2021/01/11 00:33:05;;;;;;;69.30;30.15;;;0.30;88.40;;;;;;5036515;28;20391;-69
2021/01/11 00:35:31;;;;;;;72.22;31.65;;;0.40;88.50;;;;;;5033768;28;20029;-69
2021/01/11 00:37:57;;;;;;;82.35;35.28;;;0.30;88.40;;;;;;5032528;28;20538;-68
2021/01/11 00:40:22;;;;;;;81.70;32.38;;;0.30;88.30;;;;;;5036495;28;20053;-70
2021/01/11 00:42:48;;;;;;;67.82;31.67;;;0.20;88.20;;;;;;5041747;28;20472;-68
2021/01/11 00:45:14;;;;;;;74.50;33.72;;;0.20;88.20;;;;;;5037730;28;20029;-69
2021/01/11 00:47:41;;;;;;;77.60;33.47;;;0.10;88.50;;;;;;5034961;28;20025;-70
2021/01/11 00:50:08;;;;;;;72.40;32.35;;;0.10;88.70;;;;;;5046358;28;20065;-68
2021/01/11 00:52:36;;;;;;;72.60;30.08;;;0.10;88.80;;;;;;5049893;28;20436;-68
2021/01/11 00:55:05;;;;;;;75.28;31.00;;;0.10;89.10;;;;;;5034233;28;20503;-70
2021/01/11 00:57:31;;;;;;;72.95;31.65;;;0.20;89.20;;;;;;5037781;28;20087;-69
2021/01/11 00:59:56;;;;;;;77.60;32.83;;;0.20;89.20;;;;;;5039548;28;20030;-69
2021/01/11 01:02:22;;;;;;;71.07;29.08;;;0.20;89.00;;;;;;5054714;28;20025;-69
2021/01/11 01:04:48;;;;;;;68.43;29.23;;;0.20;89.00;;;;;;5037394;28;20021;-68
2021/01/11 01:07:14;;;;;;;70.22;28.05;;;0.20;89.20;;;;;;5040489;28;20064;-68
2021/01/11 01:09:39;;;;;;;59.33;26.27;;;0.20;89.20;;;;;;5036984;28;20029;-68
2021/01/11 01:12:05;;;;;;;68.07;28.73;;;0.20;89.30;;;;;;5039581;28;20029;-69
2021/01/11 01:14:31;;;;;;;63.53;28.15;;;0.30;89.20;;;;;;5044817;28;20048;-69
2021/01/11 01:16:57;;;;;;;62.40;28.40;;;0.20;88.70;;;;;;5032942;28;20075;-68
2021/01/11 01:19:23;;;;;;;62.47;26.38;;;0.20;88.70;;;;;;5043896;28;20039;-69
2021/01/11 01:21:48;;;;;;;63.75;28.33;;;0.10;88.80;;;;;;5031372;28;20109;-68
2021/01/11 01:24:14;;;;;;;56.58;26.60;;;0.10;88.80;;;;;;5034514;28;20029;-69
2021/01/11 01:26:40;;;;;;;54.78;26.27;;;0.10;89.00;;;;;;5031475;28;20096;-71
2021/01/11 01:29:06;;;;;;;55.88;25.45;;;0.10;89.20;;;;;;5037512;28;20544;-68
2021/01/11 01:31:31;;;;;;;65.25;29.67;;;0.10;89.10;;;;;;5040977;28;20017;-68
2021/01/11 01:33:57;;;;;;;74.38;33.22;;;0.10;89.10;;;;;;5037006;28;20036;-68
2021/01/11 01:36:23;;;;;;;79.80;34.20;;;0.10;88.90;;;;;;5045187;28;20071;-67
2021/01/11 01:38:49;;;;;;;88.10;37.10;;;0.00;88.40;;;;;;5033792;28;20049;-67
2021/01/11 01:41:14;;;;;;;86.80;37.72;;;-0.10;88.80;;;;;;5033367;28;20110;-68
2021/01/11 01:43:40;;;;;;;94.10;39.80;;;-0.10;89.40;;;;;;5042605;28;20116;-68
2021/01/11 01:46:11;;;;;;;69.57;30.67;;;-0.10;89.60;;;;;;5035421;28;20036;-67
2021/01/11 01:48:37;;;;;;;77.63;35.65;;;0.00;90.20;;;;;;5032623;28;20030;-68
2021/01/11 01:51:03;;;;;;;71.35;33.42;;;0.10;90.30;;;;;;5034393;28;20040;-67
2021/01/11 01:53:28;;;;;;;64.00;29.65;;;0.30;90.40;;;;;;5034077;28;20029;-69
2021/01/11 01:55:55;;;;;;;63.50;29.42;;;0.40;90.60;;;;;;5034654;28;20048;-68
2021/01/11 01:58:21;;;;;;;61.95;27.95;;;0.50;90.70;;;;;;5040873;28;20041;-68
2021/01/11 02:00:48;;;;;;;64.55;29.60;;;0.60;90.80;;;;;;5038421;28;20507;-68
2021/01/11 02:03:14;;;;;;;58.67;26.73;;;0.70;90.70;;;;;;5034644;28;20529;-68
2021/01/11 02:05:40;;;;;;;41.13;19.70;;;0.80;90.50;;;;;;5037743;28;20058;-68
2021/01/11 02:08:38;;;;;;;41.97;19.50;;;0.90;90.50;;;;;;5031170;28;20387;-68
2021/01/11 02:11:24;;;;;;;39.95;19.60;;;0.90;90.60;;;;;;5045417;28;20064;-68
2021/01/11 02:13:52;;;;;;;31.60;16.48;;;1.00;90.40;;;;;;5035304;28;20028;-68
2021/01/11 02:16:30;;;;;;;34.85;17.00;;;1.00;90.30;;;;;;5045411;28;20038;-68
2021/01/11 02:19:44;;;;;;;35.10;16.58;;;1.10;90.20;;;;;;5043495;28;20021;-68
2021/01/11 02:22:22;;;;;;;32.42;15.65;;;1.10;90.30;;;;;;5033967;28;20507;-68
2021/01/11 02:25:12;;;;;;;34.10;17.67;;;1.10;90.10;;;;;;5031006;28;20468;-68
2021/01/11 02:27:57;;;;;;;27.92;14.95;;;1.20;90.20;;;;;;5038199;28;20033;-68
2021/01/11 02:30:30;;;;;;;27.13;14.13;;;1.20;90.20;;;;;;5035864;28;20088;-68
2021/01/11 02:33:01;;;;;;;22.65;12.10;;;1.20;90.00;;;;;;5032970;28;20033;-68
2021/01/11 02:35:29;;;;;;;20.77;10.45;;;1.10;89.70;;;;;;5046528;28;20033;-68
2021/01/11 02:37:58;;;;;;;20.35;9.98;;;1.20;89.70;;;;;;5036644;28;20388;-68
2021/01/11 02:40:24;;;;;;;18.60;9.77;;;1.20;89.70;;;;;;5039239;28;20053;-68
2021/01/11 02:42:50;;;;;;;17.38;9.70;;;1.10;89.40;;;;;;5046751;28;20074;-68
2021/01/11 02:45:16;;;;;;;17.90;10.25;;;1.10;89.10;;;;;;5043323;28;20029;-68
2021/01/11 02:47:56;;;;;;;17.10;9.13;;;1.10;89.30;;;;;;5047735;28;20120;-68
2021/01/11 02:50:26;;;;;;;17.73;9.82;;;1.20;89.50;;;;;;5040115;28;20464;-69
2021/01/11 02:53:00;;;;;;;17.23;9.68;;;1.20;89.50;;;;;;5032824;28;20033;-68
2021/01/11 02:55:52;;;;;;;16.83;9.48;;;1.20;89.20;;;;;;5037104;28;20041;-68
2021/01/11 02:58:49;;;;;;;15.35;8.00;;;1.20;89.00;;;;;;5035389;28;20048;-69
2021/01/11 03:01:18;;;;;;;14.02;8.13;;;1.20;89.00;;;;;;5036794;28;20464;-69
2021/01/11 03:03:51;;;;;;;13.02;8.32;;;1.20;88.80;;;;;;5039424;28;20491;-67
2021/01/11 03:06:17;;;;;;;13.07;7.20;;;1.10;88.70;;;;;;5043786;28;20033;-68
2021/01/11 03:08:43;;;;;;;14.32;8.23;;;1.20;88.80;;;;;;5035172;28;20529;-67
2021/01/11 03:11:09;;;;;;;14.68;8.52;;;1.20;88.70;;;;;;5036199;28;20476;-67
2021/01/11 03:13:35;;;;;;;15.55;8.50;;;1.20;88.90;;;;;;5035555;28;20029;-71
2021/01/11 03:16:01;;;;;;;13.90;8.25;;;1.30;88.90;;;;;;5041798;28;20454;-67
2021/01/11 03:18:27;;;;;;;15.98;9.15;;;1.30;88.90;;;;;;5043476;28;20037;-67
2021/01/11 03:20:52;;;;;;;19.85;10.70;;;1.30;88.80;;;;;;5045017;28;20029;-68
2021/01/11 03:23:18;;;;;;;21.08;11.25;;;1.40;88.70;;;;;;5033518;28;20384;-68
2021/01/11 03:25:44;;;;;;;19.33;10.60;;;1.40;88.80;;;;;;5040408;28;20032;-67
2021/01/11 03:28:10;;;;;;;20.65;11.00;;;1.40;88.60;;;;;;5045708;28;20033;-67
2021/01/11 03:30:36;;;;;;;24.98;12.52;;;1.50;88.90;;;;;;5040334;28;20115;-69
2021/01/11 03:33:02;;;;;;;23.17;12.43;;;1.50;88.50;;;;;;5046931;28;20028;-67
2021/01/11 03:35:28;;;;;;;23.55;11.48;;;1.60;88.60;;;;;;5043956;28;20029;-68
2021/01/11 03:37:54;;;;;;;22.50;12.10;;;1.60;88.50;;;;;;5040452;28;20028;-68
2021/01/11 03:40:20;;;;;;;23.05;12.07;;;1.70;88.30;;;;;;5034829;28;20403;-68
2021/01/11 03:42:45;;;;;;;20.08;11.27;;;1.70;87.70;;;;;;5048469;28;20071;-68
2021/01/11 03:45:12;;;;;;;23.80;12.82;;;1.70;87.50;;;;;;5036468;28;20443;-67
2021/01/11 03:47:37;;;;;;;21.25;12.15;;;1.60;87.40;;;;;;5040570;28;20044;-67
2021/01/11 03:50:07;;;;;;;22.77;12.10;;;1.60;87.20;;;;;;5035162;28;20029;-68
2021/01/11 03:52:34;;;;;;;22.55;11.75;;;1.60;87.10;;;;;;5040655;28;20644;-68
2021/01/11 03:55:00;;;;;;;23.02;12.50;;;1.60;87.50;;;;;;5050533;28;20483;-68
2021/01/11 03:57:29;;;;;;;21.80;12.40;;;1.60;87.50;;;;;;5039771;28;20037;-68
2021/01/11 03:59:55;;;;;;;22.52;11.75;;;1.60;87.70;;;;;;5036286;28;20025;-68
2021/01/11 04:02:21;;;;;;;22.40;11.35;;;1.70;87.90;;;;;;5046067;28;20131;-67
2021/01/11 04:04:46;;;;;;;23.58;12.27;;;1.80;87.70;;;;;;5035440;28;20029;-68
2021/01/11 04:07:12;;;;;;;24.52;12.73;;;1.80;87.30;;;;;;5046444;28;20024;-68
2021/01/11 04:09:38;;;;;;;27.92;13.02;;;1.80;87.20;;;;;;5036847;28;20018;-68
2021/01/11 04:12:04;;;;;;;28.48;15.00;;;1.80;86.80;;;;;;5037731;28;20061;-67
2021/01/11 04:14:29;;;;;;;28.00;14.70;;;1.80;86.80;;;;;;5033875;28;20034;-67
2021/01/11 04:16:55;;;;;;;28.40;15.13;;;1.80;86.80;;;;;;5034701;28;20048;-67
2021/01/11 04:19:21;;;;;;;29.23;14.90;;;1.80;86.70;;;;;;5040762;28;20029;-67
2021/01/11 04:21:47;;;;;;;27.80;15.18;;;1.80;86.60;;;;;;5049961;28;20028;-67
2021/01/11 04:24:12;;;;;;;24.67;15.05;;;1.80;86.50;;;;;;5038110;28;20021;-67
2021/01/11 04:26:38;;;;;;;29.00;15.10;;;1.80;86.50;;;;;;5043765;28;20028;-68
2021/01/11 04:29:04;;;;;;;25.23;14.27;;;1.80;86.40;;;;;;5036175;28;20492;-67
2021/01/11 04:31:30;;;;;;;22.38;13.13;;;1.90;86.40;;;;;;5032467;28;20024;-67
2021/01/11 04:33:55;;;;;;;25.60;13.27;;;1.90;86.40;;;;;;5038700;28;20077;-68
2021/01/11 04:36:21;;;;;;;25.58;13.38;;;1.90;86.20;;;;;;5050481;28;20064;-67
2021/01/11 04:38:47;;;;;;;31.35;15.70;;;1.90;86.10;;;;;;5036605;28;20886;-67
2021/01/11 04:41:13;;;;;;;29.73;15.48;;;1.90;86.00;;;;;;5047114;28;20539;-67
2021/01/11 04:43:47;;;;;;;32.05;16.40;;;1.90;85.80;;;;;;5039712;28;20060;-67
2021/01/11 04:46:13;;;;;;;28.13;15.18;;;1.90;85.70;;;;;;5035982;28;20464;-68
2021/01/11 04:48:41;;;;;;;30.60;15.50;;;1.90;85.60;;;;;;5034355;28;20056;-68
2021/01/11 04:51:07;;;;;;;29.23;15.30;;;1.80;85.20;;;;;;5044953;28;20033;-69
2021/01/11 04:53:35;;;;;;;25.73;14.05;;;1.70;84.80;;;;;;5036354;28;20083;-68
2021/01/11 04:56:03;;;;;;;25.73;14.30;;;1.50;84.60;;;;;;5038779;28;20549;-69
2021/01/11 04:58:54;;;;;;;24.02;13.82;;;1.50;84.90;;;;;;5044414;28;20475;-68
2021/01/11 05:01:27;;;;;;;25.48;14.20;;;1.40;85.00;;;;;;5038405;28;20040;-68
2021/01/11 05:04:00;;;;;;;26.85;14.50;;;1.40;85.10;;;;;;5033611;28;20026;-68
2021/01/11 05:06:26;;;;;;;26.55;14.00;;;1.30;85.10;;;;;;5031960;28;20033;-68
2021/01/11 05:08:52;;;;;;;22.42;11.52;;;1.30;85.00;;;;;;5046200;28;20018;-69
2021/01/11 05:11:18;;;;;;;24.17;12.05;;;1.20;84.80;;;;;;5049116;28;20075;-69
2021/01/11 05:13:43;;;;;;;20.83;11.38;;;1.10;84.70;;;;;;5050940;28;20033;-68
2021/01/11 05:16:11;;;;;;;26.13;13.75;;;1.00;84.60;;;;;;5038211;28;20068;-68
2021/01/11 05:18:37;;;;;;;25.48;12.93;;;1.00;84.80;;;;;;5051553;28;20044;-69
2021/01/11 05:21:03;;;;;;;24.67;12.73;;;0.90;84.80;;;;;;5045991;28;20033;-68
2021/01/11 05:23:35;;;;;;;19.35;10.45;;;0.90;85.00;;;;;;5040968;28;20025;-69
2021/01/11 05:26:14;;;;;;;16.85;9.15;;;0.90;85.30;;;;;;5037535;28;20036;-68
2021/01/11 05:28:42;;;;;;;13.90;7.75;;;0.90;85.30;;;;;;5034626;28;20121;-68
2021/01/11 05:31:08;;;;;;;16.42;8.52;;;0.90;85.30;;;;;;5048159;28;20104;-69
2021/01/11 05:33:34;;;;;;;14.30;8.10;;;0.90;85.40;;;;;;5033467;28;20068;-68
2021/01/11 05:36:09;;;;;;;17.23;8.82;;;0.90;86.00;;;;;;5038492;28;20484;-69
2021/01/11 05:38:37;;;;;;;16.58;8.07;;;0.90;85.50;;;;;;5037797;28;20071;-69
2021/01/11 05:41:15;;;;;;;16.20;9.18;;;1.00;85.60;;;;;;5038471;28;20055;-68
2021/01/11 05:43:41;;;;;;;18.52;10.25;;;1.00;85.50;;;;;;5039585;28;20022;-68
2021/01/11 05:46:27;;;;;;;14.70;8.25;;;1.00;85.30;;;;;;5042001;28;20041;-70
2021/01/11 05:48:58;;;;;;;;;;;1.00;85.30;;;;;;5037590;28;20036;-69
2021/01/11 05:51:26;;;;;;;14.32;8.25;;;1.00;85.40;;;;;;5037122;28;20298;-70
2021/01/11 05:53:52;;;;;;;13.85;7.38;;;1.00;85.50;;;;;;5031261;28;20030;-70
2021/01/11 05:56:17;;;;;;;13.10;7.05;;;1.00;85.50;;;;;;5031285;28;20080;-68
2021/01/11 05:59:05;;;;;;;13.73;7.03;;;1.00;85.50;;;;;;5034542;28;20051;-68
2021/01/11 06:01:32;;;;;;;12.30;6.68;;;1.00;85.40;;;;;;5041880;28;20017;-67
2021/01/11 06:03:58;;;;;;;14.98;8.02;;;1.00;85.20;;;;;;5031603;28;20368;-69
2021/01/11 06:06:24;;;;;;;13.10;7.32;;;1.10;85.20;;;;;;5037445;28;20063;-69
2021/01/11 06:08:51;;;;;;;13.43;7.28;;;1.00;85.10;;;;;;5055707;28;20467;-68
2021/01/11 06:11:22;;;;;;;13.82;7.43;;;1.10;85.10;;;;;;5038025;28;20025;-69
2021/01/11 06:13:50;;;;;;;13.60;7.82;;;1.10;84.90;;;;;;5039581;28;20025;-69
2021/01/11 06:16:17;;;;;;;13.90;7.40;;;1.10;84.80;;;;;;5041332;28;20120;-69
2021/01/11 06:18:45;;;;;;;13.23;7.25;;;1.10;84.90;;;;;;5050479;28;20070;-69
2021/01/11 06:21:11;;;;;;;14.15;7.47;;;1.20;84.80;;;;;;5044124;28;20029;-68
2021/01/11 06:23:38;;;;;;;13.23;6.80;;;1.20;84.50;;;;;;5039254;28;20033;-68
2021/01/11 06:26:24;;;;;;;12.52;6.75;;;1.20;84.10;;;;;;5044118;28;20108;-68
2021/01/11 06:28:51;;;;;;;11.65;6.63;;;1.10;84.10;;;;;;5050073;28;20033;-68
2021/01/11 06:31:17;;;;;;;11.40;6.70;;;1.20;84.30;;;;;;5044508;28;20029;-68
2021/01/11 06:33:44;;;;;;;12.77;7.15;;;1.20;84.40;;;;;;5047020;28;20025;-68
2021/01/11 06:36:34;;;;;;;17.60;8.23;;;1.20;84.10;;;;;;5043833;28;20797;-77
2021/01/11 06:39:07;;;;;;;14.73;7.97;;;1.30;84.10;;;;;;5039648;28;20032;-70
2021/01/11 06:41:34;;;;;;;13.93;7.55;;;1.30;84.00;;;;;;5058972;28;20479;-70
2021/01/11 06:44:06;;;;;;;13.95;8.13;;;1.40;84.00;;;;;;5043021;28;20468;-68
2021/01/11 06:46:32;;;;;;;12.88;8.18;;;1.50;83.90;;;;;;5036159;28;20021;-68
2021/01/11 06:49:05;;;;;;;14.45;7.35;;;1.60;83.80;;;;;;5034817;28;20453;-71
2021/01/11 06:51:43;;;;;;;11.98;6.78;;;1.70;84.20;;;;;;5034302;28;20025;-69
2021/01/11 06:54:13;;;;;;;14.43;7.35;;;1.90;84.40;;;;;;5034530;28;20371;-69
2021/01/11 06:56:41;;;;;;;11.02;6.43;;;2.10;84.20;;;;;;5035455;28;20037;-69
2021/01/11 06:59:07;;;;;;;12.32;6.80;;;2.40;84.60;;;;;;5042219;28;20111;-69
2021/01/11 07:01:37;;;;;;;12.45;6.45;;;2.70;84.80;;;;;;5041567;28;20407;-69
2021/01/11 07:04:03;;;;;;;10.88;6.10;;;3.00;84.70;;;;;;5033900;28;20047;-69
2021/01/11 07:06:39;;;;;;;10.65;6.35;;;3.40;84.30;;;;;;5035063;28;20424;-68
2021/01/11 07:09:06;;;;;;;;;;;3.80;83.50;;;;;;5034898;28;20053;-69
2021/01/11 07:11:51;;;;;;;11.02;6.00;;;4.00;82.80;;;;;;5047172;28;20327;-69
2021/01/11 07:14:22;;;;;;;10.63;6.20;;;4.10;81.90;;;;;;5033391;28;20029;-71
2021/01/11 07:16:53;;;;;;;12.93;7.15;;;4.30;81.30;;;;;;5043515;28;20037;-70
2021/01/11 07:19:37;;;;;;;10.15;5.70;;;4.50;80.50;;;;;;5037912;28;20025;-70
2021/01/11 07:22:09;;;;;;;11.98;7.00;;;4.50;79.60;;;;;;5039797;28;20029;-71
2021/01/11 07:24:37;;;;;;;10.90;6.10;;;4.50;79.20;;;;;;5037937;28;20379;-70
2021/01/11 07:27:03;;;;;;;9.77;6.00;;;4.50;77.70;;;;;;5034889;28;20029;-70
2021/01/11 07:29:29;;;;;;;10.35;6.00;;;4.40;77.30;;;;;;5036262;28;20029;-68
2021/01/11 07:31:55;;;;;;;12.77;7.05;;;4.30;77.10;;;;;;5036467;28;20021;-71
2021/01/11 07:34:24;;;;;;;9.32;5.90;;;4.30;77.10;;;;;;5035686;28;20181;-69
2021/01/11 07:36:51;;;;;;;11.13;6.03;;;4.20;76.20;;;;;;5048511;28;20116;-67
2021/01/11 07:39:31;;;;;;;11.02;5.72;;;4.20;76.40;;;;;;5043800;28;20385;-67
2021/01/11 07:41:58;;;;;;;11.35;6.07;;;4.20;76.70;;;;;;5034417;28;20042;-74
2021/01/11 07:44:31;;;;;;;17.25;8.52;;;4.60;78.00;;;;;;5038902;28;20382;-79
2021/01/11 07:47:00;;;;;;;17.98;9.45;;;5.00;78.10;;;;;;5034882;28;20030;-71
2021/01/11 07:49:28;;;;;;;14.23;7.72;;;5.40;77.60;;;;;;5033704;28;20468;-69
2021/01/11 07:52:00;;;;;;;9.00;5.63;;;5.70;75.80;;;;;;5034182;28;20128;-72
2021/01/11 07:54:25;;;;;;;10.25;5.97;;;5.70;74.50;;;;;;5035033;28;20030;-69
2021/01/11 07:56:51;;;;;;;8.90;5.28;;;5.90;74.30;;;;;;5038094;28;20060;-69
2021/01/11 07:59:18;;;;;;;9.45;5.70;;;5.90;73.40;;;;;;5035047;28;20026;-69
2021/01/11 08:01:46;;;;;;;8.95;5.65;;;6.10;73.30;;;;;;5036694;28;20021;-69
2021/01/11 08:04:13;;;;;;;7.88;5.30;;;6.30;73.60;;;;;;5031893;28;20033;-69
2021/01/11 08:06:48;;;;;;;9.75;5.85;;;7.00;75.00;;;;;;5033438;28;20034;-69
2021/01/11 08:09:15;;;;;;;8.10;5.20;;;7.80;74.40;;;;;;5034642;28;20060;-69
2021/01/11 08:11:41;;;;;;;9.80;5.40;;;8.50;73.10;;;;;;5034668;28;20057;-69
2021/01/11 08:14:08;;;;;;;8.30;5.45;;;9.20;72.10;;;;;;5032800;28;20032;-69
2021/01/11 08:16:40;;;;;;;8.55;5.28;;;9.80;69.50;;;;;;5034399;28;20065;-69
2021/01/11 08:19:07;;;;;;;9.05;5.55;;;10.40;67.60;;;;;;5032825;28;20078;-69
2021/01/11 08:21:33;;;;;;;7.63;5.10;;;10.80;65.30;;;;;;5033290;28;20038;-69
2021/01/11 08:24:10;;;;;;;9.88;6.13;;;10.80;62.20;;;;;;5032586;28;20116;-69
2021/01/11 08:26:56;;;;;;;9.52;6.20;;;10.40;60.80;;;;;;5034149;28;20086;-69
2021/01/11 08:29:22;;;;;;;11.10;6.85;;;10.20;60.80;;;;;;5032665;28;20021;-70
2021/01/11 08:31:47;;;;;;;10.63;6.80;;;10.00;60.20;;;;;;5034266;28;20100;-69
2021/01/11 08:34:13;;;;;;;10.55;6.38;;;9.60;59.40;;;;;;5033590;28;20468;-69
2021/01/11 08:36:39;;;;;;;10.45;6.60;;;9.10;58.70;;;;;;5033900;28;20116;-69
2021/01/11 08:39:06;;;;;;;10.55;5.85;;;8.60;59.30;;;;;;5032777;28;20031;-70
2021/01/11 08:41:33;;;;;;;9.57;6.07;;;8.60;61.40;;;;;;5032347;28;20056;-69
2021/01/11 08:43:59;;;;;;;11.15;6.32;;;9.10;62.20;;;;;;5032282;28;20025;-69
2021/01/11 08:47:04;;;;;;;10.98;6.93;;;9.80;62.10;;;;;;5033908;28;20034;-70
2021/01/11 08:49:31;;;;;;;11.43;6.78;;;10.30;60.20;;;;;;5032752;28;20029;-69
2021/01/11 08:52:10;;;;;;;10.90;7.13;;;10.70;59.50;;;;;;5033357;28;20029;-69
2021/01/11 08:54:37;;;;;;;12.90;8.20;;;11.00;58.80;;;;;;5032194;28;20033;-69
2021/01/11 08:57:14;;;;;;;14.93;8.35;;;11.60;59.00;;;;;;5032426;28;20025;-70
2021/01/11 08:59:50;;;;;;;12.80;8.88;;;12.20;57.80;;;;;;5032593;28;20068;-70
2021/01/11 09:02:27;;;;;;;13.55;8.52;;;12.60;56.00;;;;;;5032528;28;20032;-68
2021/01/11 09:04:54;;;;;;;12.32;8.23;;;13.00;55.00;;;;;;5033939;28;20468;-69
2021/01/11 09:07:30;;;;;;;13.88;8.98;;;13.30;54.60;;;;;;5032268;28;20025;-69
2021/01/11 09:09:57;;;;;;;13.07;8.77;;;13.80;53.20;;;;;;5033519;28;20053;-70
2021/01/11 09:12:34;;;;;;;28.08;18.23;;;14.20;52.50;;;;;;5033324;28;20345;-70
2021/01/11 09:15:00;;;;;;;13.25;8.98;;;14.40;50.60;;;;;;5032399;28;20486;-70
2021/01/11 09:17:31;;;;;;;23.58;14.65;;;14.40;49.60;;;;;;5033387;28;20033;-70
2021/01/11 09:20:03;;;;;;;14.32;9.57;;;14.40;49.20;;;;;;5032337;28;20087;-70
2021/01/11 09:22:41;;;;;;;15.50;10.35;;;14.70;49.20;;;;;;5032014;28;20083;-69
2021/01/11 09:25:12;;;;;;;15.50;10.52;;;14.80;48.40;;;;;;5032035;28;20416;-70
2021/01/11 09:27:40;;;;;;;35.17;15.15;;;15.10;48.40;;;;;;5032905;28;20033;-70
2021/01/11 09:30:08;;;;;;;14.88;10.45;;;15.20;47.50;;;;;;5032663;28;20030;-70
2021/01/11 09:32:34;;;;;;;15.38;10.20;;;15.10;46.40;;;;;;5033252;28;20108;-70
2021/01/11 09:35:00;;;;;;;44.45;19.38;;;14.70;45.50;;;;;;5031762;28;20105;-70
2021/01/11 09:37:26;;;;;;;42.63;20.92;;;14.30;45.90;;;;;;5033134;28;20100;-70
2021/01/11 09:39:52;;;;;;;26.75;16.42;;;14.30;46.70;;;;;;5031603;28;20046;-70
2021/01/11 09:42:18;;;;;;;40.08;23.02;;;14.20;46.10;;;;;;5032978;28;20125;-70
2021/01/11 09:44:44;;;;;;;22.55;13.63;;;14.20;46.70;;;;;;5033098;28;20017;-70
2021/01/11 09:47:10;;;;;;;43.13;22.00;;;13.90;45.30;;;;;;5033005;28;20032;-70
2021/01/11 09:49:36;;;;;;;44.60;24.92;;;13.60;46.50;;;;;;5031608;28;20026;-70
2021/01/11 09:52:03;;;;;;;59.10;30.77;;;13.40;46.60;;;;;;5031335;28;20145;-70
2021/01/11 09:54:30;;;;;;;29.35;19.35;;;13.20;46.40;;;;;;5031695;28;20029;-70
2021/01/11 09:56:59;;;;;;;31.83;15.63;;;12.60;46.30;;;;;;5031398;28;20038;-70
2021/01/11 09:59:26;;;;;;;36.83;24.67;;;12.00;46.10;;;;;;5031701;28;20064;-70
2021/01/11 10:01:52;;;;;;;32.55;19.67;;;11.70;47.30;;;;;;5032796;28;20029;-70
2021/01/11 10:04:19;;;;;;;34.75;21.55;;;11.60;47.90;;;;;;5032831;28;20037;-69
2021/01/11 10:06:47;;;;;;;31.67;19.75;;;11.60;48.30;;;;;;5034970;28;20110;-69
2021/01/11 10:09:15;;;;;;;37.17;20.20;;;11.70;48.10;;;;;;5037247;28;20026;-69
2021/01/11 10:11:41;;;;;;;33.90;19.63;;;11.90;48.40;;;;;;5035447;28;20029;-68
2021/01/11 10:14:07;;;;;;;40.75;20.60;;;12.20;49.20;;;;;;5035221;28;20112;-68
2021/01/11 10:16:38;;;;;;;33.25;21.38;;;12.80;49.10;;;;;;5035454;28;20123;-70
2021/01/11 10:19:03;;;;;;;32.63;19.33;;;13.20;48.60;;;;;;5035322;28;20021;-68
2021/01/11 10:21:29;;;;;;;36.15;21.20;;;13.40;47.90;;;;;;5036640;28;20108;-70
2021/01/11 10:23:55;;;;;;;19.23;12.13;;;13.30;47.00;;;;;;5036100;28;20044;-69
2021/01/11 10:26:22;;;;;;;12.63;8.50;;;12.70;45.80;;;;;;5036896;28;20436;-69
2021/01/11 10:28:49;;;;;;;14.45;8.70;;;12.10;46.50;;;;;;5035652;28;20103;-69
2021/01/11 10:31:16;;;;;;;14.13;7.97;;;11.80;47.10;;;;;;5035113;28;20075;-69
2021/01/11 10:33:43;;;;;;;12.50;7.50;;;11.40;47.20;;;;;;5036234;28;20017;-69
2021/01/11 10:36:09;;;;;;;11.98;7.60;;;10.90;46.90;;;;;;5034776;28;20037;-69
2021/01/11 10:38:35;;;;;;;12.73;7.88;;;10.30;47.70;;;;;;5035126;28;20018;-70
2021/01/11 10:41:01;;;;;;;11.38;7.20;;;9.90;48.50;;;;;;5034972;28;20064;-68
2021/01/11 10:43:27;;;;;;;13.85;7.45;;;9.70;49.40;;;;;;5035121;28;20508;-69
2021/01/11 10:45:53;;;;;;;12.48;7.70;;;9.50;49.70;;;;;;5035817;28;20053;-69
2021/01/11 10:48:19;;;;;;;12.43;7.57;;;9.40;50.10;;;;;;5036114;28;20048;-69
2021/01/11 10:50:45;;;;;;;11.45;7.53;;;9.30;50.30;;;;;;5036103;28;20464;-69
2021/01/11 10:53:12;;;;;;;11.75;7.47;;;9.30;50.50;;;;;;5034518;28;20108;-71
2021/01/11 10:55:38;;;;;;;13.82;7.95;;;9.10;50.70;;;;;;5034848;28;20353;-69
2021/01/11 10:58:04;;;;;;;13.45;8.25;;;9.00;50.80;;;;;;5034665;28;20044;-70
2021/01/11 11:00:29;;;;;;;13.20;7.90;;;8.80;50.80;;;;;;5034492;28;20112;-69
2021/01/11 11:02:55;;;;;;;13.50;7.82;;;8.30;50.90;;;;;;5035972;28;20032;-69
2021/01/11 11:05:21;;;;;;;14.13;7.75;;;7.80;51.40;;;;;;5035687;28;20064;-69
2021/01/11 11:07:47;;;;;;;13.48;7.68;;;7.40;52.20;;;;;;5034413;28;20099;-69
2021/01/11 11:10:14;;;;;;;13.98;7.20;;;7.10;52.80;;;;;;5035641;28;20036;-69
2021/01/11 11:12:42;;;;;;;12.70;7.95;;;6.80;53.60;;;;;;5034455;28;20049;-69
2021/01/11 11:15:08;;;;;;;13.70;7.70;;;6.50;54.10;;;;;;5035664;28;20120;-69
2021/01/11 11:17:34;;;;;;;14.40;8.02;;;6.30;54.80;;;;;;5034082;28;20406;-69
2021/01/11 11:20:00;;;;;;;15.75;9.10;;;6.00;55.30;;;;;;5033892;28;20029;-69
2021/01/11 11:22:26;;;;;;;16.35;8.60;;;5.80;56.00;;;;;;5033802;28;20033;-68
2021/01/11 11:24:52;;;;;;;14.90;7.95;;;5.70;56.60;;;;;;5035356;28;20033;-69
2021/01/11 11:27:19;;;;;;;12.63;7.85;;;5.50;56.80;;;;;;5034038;28;20029;-68
2021/01/11 11:29:45;;;;;;;13.05;7.82;;;5.40;57.20;;;;;;5035573;28;20027;-69
2021/01/11 11:32:11;;;;;;;13.30;7.85;;;5.40;57.50;;;;;;5035158;28;20030;-68
2021/01/11 11:34:40;;;;;;;14.93;7.68;;;5.20;57.70;;;;;;5034979;28;20029;-69
2021/01/11 11:37:05;;;;;;;12.52;6.60;;;5.10;57.90;;;;;;5034450;28;20376;-68
2021/01/11 11:39:31;;;;;;;15.27;7.80;;;5.00;58.30;;;;;;5035448;28;20025;-72
2021/01/11 11:41:59;;;;;;;13.73;7.18;;;4.90;58.30;;;;;;5033678;28;20107;-68
2021/01/11 11:44:25;;;;;;;12.55;7.55;;;4.80;58.60;;;;;;5033949;28;20087;-68
2021/01/11 11:46:54;;;;;;;11.68;6.47;;;4.80;58.90;;;;;;5033670;28;20032;-68
2021/01/11 11:49:21;;;;;;;14.98;8.00;;;4.80;59.30;;;;;;5034980;28;20083;-68
2021/01/11 11:51:48;;;;;;;13.93;7.97;;;4.70;59.30;;;;;;5035259;28;20364;-68
2021/01/11 11:54:14;;;;;;;13.43;7.82;;;4.70;59.50;;;;;;5033655;28;20029;-68
2021/01/11 11:56:41;;;;;;;13.90;7.93;;;4.60;59.80;;;;;;5033569;28;20033;-69
2021/01/11 11:59:07;;;;;;;14.95;8.05;;;4.60;59.70;;;;;;5034780;28;20492;-69
2021/01/11 12:01:38;;;;;;;15.15;8.30;;;4.60;59.80;;;;;;5033465;28;20053;-68
2021/01/11 12:04:04;;;;;;;13.18;7.57;;;4.60;59.90;;;;;;5032965;28;20048;-68
2021/01/11 12:06:44;;;;;;;17.10;8.32;;;4.60;60.00;;;;;;5034796;28;20043;-68
2021/01/11 12:09:11;;;;;;;15.18;8.38;;;4.60;60.20;;;;;;5034595;28;20471;-68
2021/01/11 12:11:51;;;;;;;16.20;8.55;;;4.60;60.40;;;;;;5033280;28;20032;-68
2021/01/11 12:14:17;;;;;;;15.93;8.57;;;4.60;60.60;;;;;;5033076;28;20108;-69
2021/01/11 12:16:50;;;;;;;12.75;7.63;;;4.60;60.80;;;;;;5034670;28;20108;-68
2021/01/11 12:19:17;;;;;;;14.02;8.20;;;4.60;60.80;;;;;;5033028;28;20044;-68
2021/01/11 12:21:44;;;;;;;13.95;8.32;;;4.70;61.00;;;;;;5034357;28;20052;-68
2021/01/11 12:24:10;;;;;;;14.35;7.95;;;4.90;61.30;;;;;;5034025;28;20029;-68
2021/01/11 12:26:42;;;;;;;14.40;8.18;;;5.10;61.00;;;;;;5034296;28;20388;-68
2021/01/11 12:29:09;;;;;;;12.50;6.93;;;5.30;61.10;;;;;;5033350;28;20076;-69
2021/01/11 12:31:35;;;;;;;12.90;7.13;;;5.60;61.20;;;;;;5033139;28;20029;-69
2021/01/11 12:34:00;;;;;;;13.05;7.53;;;6.10;60.90;;;;;;5032767;28;20445;-69
2021/01/11 12:36:28;;;;;;;12.73;7.30;;;6.40;60.00;;;;;;5033955;28;20471;-68
2021/01/11 12:38:55;;;;;;;12.60;7.60;;;6.70;59.70;;;;;;5034059;28;20376;-68
2021/01/11 12:41:22;;;;;;;12.52;7.45;;;6.90;58.90;;;;;;5033494;28;20542;-67
2021/01/11 12:43:48;;;;;;;12.93;7.28;;;6.90;58.20;;;;;;5032868;28;20032;-68
2021/01/11 12:46:18;;;;;;;13.77;7.25;;;6.90;58.30;;;;;;5032600;28;20559;-68
2021/01/11 12:48:45;;;;;;;14.05;7.75;;;7.00;57.80;;;;;;5032565;28;20483;-68